createdAt,value
2023-03-26T00:02:34.919Z,-1.18
2023-03-26T00:05:41.709Z,-1.01
2023-03-26T00:08:46.909Z,-0.79
2023-03-26T00:11:50.043Z,-0.51
2023-03-26T00:14:53.685Z,-0.27
2023-03-26T00:17:56.923Z,0.08
2023-03-26T00:21:02.009Z,0.25
2023-03-26T00:24:08.838Z,0.44
2023-03-26T00:27:13.176Z,0.75
2023-03-26T00:30:17.294Z,1.10
2023-03-26T00:33:20.661Z,1.12
2023-03-26T00:36:28.509Z,1.00
2023-03-26T00:39:34.184Z,0.78
2023-03-26T00:42:40.977Z,0.66
2023-03-26T00:45:44.239Z,0.15
2023-03-26T00:48:48.126Z,-0.03
2023-03-26T00:51:52.202Z,-0.25
2023-03-26T00:54:56.655Z,-0.11
2023-03-26T00:58:00.651Z,0.05
2023-03-26T01:01:07.469Z,0.39
2023-03-26T01:04:28.694Z,0.74
2023-03-26T01:07:32.179Z,0.90
2023-03-26T01:10:39.271Z,1.01
2023-03-26T01:13:50.244Z,1.25
2023-03-26T01:16:59.800Z,1.52
2023-03-26T01:20:15.605Z,1.47
2023-03-26T01:23:25.654Z,1.66
2023-03-26T01:26:56.847Z,2.48
2023-03-26T01:30:11.721Z,3.18
2023-03-26T01:33:49.990Z,4.13
2023-03-26T01:37:36.785Z,4.68
2023-03-26T01:41:01.486Z,4.89
2023-03-26T01:44:10.150Z,5.47
2023-03-26T01:47:14.652Z,6.16
2023-03-26T01:50:18.308Z,6.30
2023-03-26T01:53:22.263Z,6.77
2023-03-26T01:57:02.957Z,7.34
2023-03-26T02:00:21.320Z,7.39
2023-03-26T02:03:32.425Z,7.47
2023-03-26T02:06:50.098Z,7.74
2023-03-26T02:09:59.996Z,7.94
2023-03-26T02:13:04.406Z,8.13
2023-03-26T02:16:10.290Z,8.51
2023-03-26T02:19:16.344Z,8.72
2023-03-26T02:22:19.514Z,9.65
2023-03-26T02:25:24.416Z,9.90
2023-03-26T02:28:28.179Z,10.59
2023-03-26T02:31:32.179Z,11.07
2023-03-26T02:34:35.288Z,11.49
2023-03-26T02:37:39.936Z,11.24
2023-03-26T02:40:55.057Z,12.37
2023-03-26T02:44:07.837Z,12.89
2023-03-26T02:47:44.042Z,13.19
2023-03-26T02:51:10.890Z,13.18
2023-03-26T02:54:21.047Z,12.72
2023-03-26T02:57:30.383Z,13.03
2023-03-26T03:00:39.224Z,13.90
2023-03-26T03:04:04.864Z,14.56
2023-03-26T03:07:15.306Z,15.26
2023-03-26T03:10:22.464Z,15.74
2023-03-26T03:13:45.812Z,15.24
2023-03-26T03:16:54.443Z,15.82
2023-03-26T03:19:59.343Z,16.60
2023-03-26T03:23:03.228Z,17.20
2023-03-26T03:26:14.431Z,17.88
2023-03-26T03:29:20.682Z,18.05
2023-03-26T03:32:25.284Z,17.49
2023-03-26T03:35:32.382Z,17.41
2023-03-26T03:38:36.638Z,17.77
2023-03-26T03:41:40.006Z,18.04
2023-03-26T03:44:49.003Z,17.90
2023-03-26T03:48:11.982Z,17.83
2023-03-26T03:51:19.066Z,18.22
2023-03-26T03:54:29.315Z,18.74
2023-03-26T03:57:52.235Z,18.89
2023-03-26T04:01:01.498Z,18.10
2023-03-26T04:04:28.565Z,18.97
2023-03-26T04:07:36.100Z,20.04
2023-03-26T04:10:44.762Z,20.28
2023-03-26T04:13:48.540Z,20.56
2023-03-26T04:17:16.336Z,20.80
2023-03-26T04:20:22.522Z,19.37
2023-03-26T04:23:29.857Z,19.26
2023-03-26T04:26:39.250Z,18.77
2023-03-26T04:29:50.740Z,17.78
2023-03-26T04:32:59.058Z,18.47
2023-03-26T04:36:08.401Z,19.07
2023-03-26T04:39:13.918Z,19.99
2023-03-26T04:42:38.675Z,20.65
2023-03-26T04:45:49.116Z,22.08
2023-03-26T04:48:55.985Z,22.92
2023-03-26T04:51:59.247Z,22.75
2023-03-26T04:55:44.150Z,22.64
2023-03-26T04:59:00.371Z,21.19
2023-03-26T05:02:08.925Z,21.76
2023-03-26T05:05:24.529Z,21.95
2023-03-26T05:08:29.820Z,21.40
2023-03-26T05:11:32.979Z,19.45
2023-03-26T05:14:37.157Z,16.72
2023-03-26T05:17:43.530Z,15.55
2023-03-26T05:20:58.186Z,16.68
2023-03-26T05:24:03.994Z,16.68
2023-03-26T05:27:08.792Z,15.97
2023-03-26T05:30:16.508Z,15.08
2023-03-26T05:33:25.288Z,15.12
2023-03-26T05:36:44.972Z,16.97
2023-03-26T05:40:12.168Z,18.32
2023-03-26T05:43:30.276Z,21.84
2023-03-26T05:46:48.426Z,23.32
2023-03-26T05:49:57.409Z,25.07
2023-03-26T05:53:01.213Z,26.33
2023-03-26T05:56:34.414Z,25.19
2023-03-26T05:59:57.028Z,24.78
2023-03-26T06:03:20.289Z,19.19
2023-03-26T06:06:47.041Z,15.69
2023-03-26T06:09:51.650Z,14.49
2023-03-26T06:12:57.026Z,18.30
2023-03-26T06:16:00.896Z,18.84
2023-03-26T06:19:10.213Z,17.61
2023-03-26T06:22:31.846Z,20.47
2023-03-26T06:25:53.602Z,21.37
2023-03-26T06:29:17.619Z,23.08
2023-03-26T06:32:30.561Z,24.66
2023-03-26T06:35:44.236Z,23.46
2023-03-26T06:38:49.217Z,25.05
2023-03-26T06:41:54.127Z,24.19
2023-03-26T06:45:34.013Z,19.79
2023-03-26T06:48:55.821Z,19.84
2023-03-26T06:52:29.177Z,18.07
2023-03-26T06:55:51.802Z,16.54
2023-03-26T06:59:15.777Z,16.99
2023-03-26T07:02:38.535Z,17.65
2023-03-26T07:06:02.425Z,17.29
2023-03-26T07:09:24.774Z,15.29
2023-03-26T07:12:46.613Z,14.85
2023-03-26T07:16:16.432Z,14.78
2023-03-26T07:19:37.823Z,14.63
2023-03-26T07:22:46.505Z,14.83
2023-03-26T07:26:21.843Z,13.32
2023-03-26T07:29:53.453Z,12.26
2023-03-26T07:33:48.442Z,11.82
2023-03-26T07:37:44.796Z,11.00
2023-03-26T07:41:17.170Z,12.90
2023-03-26T07:44:44.904Z,11.41
2023-03-26T07:47:50.519Z,10.51
2023-03-26T07:51:07.595Z,10.11
2023-03-26T07:54:29.992Z,10.23
2023-03-26T07:58:18.212Z,11.76
2023-03-26T08:02:32.272Z,13.26
2023-03-26T08:05:54.299Z,12.40
2023-03-26T08:09:21.552Z,11.81
2023-03-26T08:13:23.626Z,11.66
2023-03-26T08:16:41.584Z,10.86
2023-03-26T08:20:01.012Z,10.29
2023-03-26T08:23:35.514Z,10.06
2023-03-26T08:26:59.499Z,10.96
2023-03-26T08:30:24.975Z,16.24
2023-03-26T08:33:29.241Z,16.39
2023-03-26T08:36:32.592Z,16.03
2023-03-26T08:39:36.029Z,19.45
2023-03-26T08:43:16.959Z,21.38
2023-03-26T08:46:41.601Z,23.28
2023-03-26T08:50:12.600Z,23.58
2023-03-26T08:53:46.656Z,24.60
2023-03-26T08:56:59.864Z,23.69
2023-03-26T09:00:18.966Z,21.83
2023-03-26T09:03:54.493Z,18.08
2023-03-26T09:07:24.913Z,16.28
2023-03-26T09:10:52.491Z,19.05
2023-03-26T09:14:13.698Z,18.08
2023-03-26T09:18:11.529Z,14.41
2023-03-26T09:21:30.512Z,13.11
2023-03-26T09:24:53.675Z,11.81
2023-03-26T09:28:31.195Z,11.08
2023-03-26T09:31:52.224Z,10.53
2023-03-26T09:35:14.318Z,9.61
2023-03-26T09:38:45.508Z,9.28
2023-03-26T09:42:00.694Z,8.71
2023-03-26T09:45:49.036Z,8.43
2023-03-26T09:49:29.631Z,9.98
2023-03-26T09:53:14.895Z,12.63
2023-03-26T09:56:28.102Z,13.26
2023-03-26T09:59:42.331Z,13.62
2023-03-26T10:03:12.977Z,14.75
2023-03-26T10:06:43.341Z,13.32
2023-03-26T10:10:12.226Z,11.19
2023-03-26T10:13:37.368Z,9.69
2023-03-26T10:16:57.459Z,8.94
2023-03-26T10:20:29.281Z,8.51
2023-03-26T10:23:39.563Z,7.54
2023-03-26T10:27:08.307Z,7.52
2023-03-26T10:30:24.631Z,7.12
2023-03-26T10:33:49.024Z,6.88
2023-03-26T10:37:04.671Z,6.49
2023-03-26T10:40:13.451Z,6.08
2023-03-26T10:43:31.165Z,5.82
2023-03-26T10:47:02.542Z,5.75
2023-03-26T10:50:28.506Z,5.56
2023-03-26T10:53:54.687Z,5.43
2023-03-26T10:56:59.508Z,5.22
2023-03-26T11:00:25.740Z,5.23
2023-03-26T11:03:32.956Z,5.30
2023-03-26T11:06:42.589Z,5.26
2023-03-26T11:10:05.917Z,5.30
2023-03-26T11:13:17.851Z,5.25
2023-03-26T11:16:43.047Z,5.19
2023-03-26T11:20:14.053Z,5.09
2023-03-26T11:23:36.586Z,5.15
2023-03-26T11:27:36.527Z,5.19
2023-03-26T11:31:22.355Z,5.15
2023-03-26T11:34:34.925Z,5.07
2023-03-26T11:37:59.692Z,5.00
2023-03-26T11:41:03.821Z,4.91
2023-03-26T11:44:32.138Z,4.82
2023-03-26T11:47:47.247Z,4.79
2023-03-26T11:50:56.966Z,4.67
2023-03-26T11:54:02.168Z,4.59
2023-03-26T11:57:09.179Z,4.51
2023-03-26T12:00:20.301Z,4.46
2023-03-26T12:03:23.986Z,4.30
2023-03-26T12:06:29.914Z,4.22
2023-03-26T12:09:33.204Z,4.16
2023-03-26T12:12:42.025Z,4.12
2023-03-26T12:15:45.753Z,4.04
2023-03-26T12:19:08.914Z,3.97
2023-03-26T12:22:38.909Z,3.96
2023-03-26T12:25:42.406Z,3.86
2023-03-26T12:28:51.786Z,3.79
2023-03-26T12:32:15.810Z,3.73
2023-03-26T12:35:31.042Z,3.66
2023-03-26T12:38:36.420Z,3.64
2023-03-26T12:44:46.829Z,3.49
2023-03-26T12:45:07.436Z,3.31
2023-03-26T12:48:13.962Z,3.21
2023-03-26T12:51:42.340Z,3.20
2023-03-26T12:55:12.208Z,3.15
2023-03-26T12:58:51.769Z,3.08
2023-03-26T13:02:02.195Z,3.05
2023-03-26T13:05:32.188Z,3.04
2023-03-26T13:08:45.275Z,2.95
2023-03-26T13:11:48.953Z,2.85
2023-03-26T13:15:30.667Z,2.77
2023-03-26T13:18:45.254Z,2.67
2023-03-26T13:21:53.500Z,2.61
2023-03-26T13:25:15.240Z,2.55
2023-03-26T13:28:56.027Z,2.51
2023-03-26T13:32:30.347Z,2.52
2023-03-26T13:35:48.565Z,2.52
2023-03-26T13:39:23.162Z,2.52
2023-03-26T13:42:42.596Z,2.48
2023-03-26T13:46:03.270Z,2.44
2023-03-26T13:49:14.215Z,2.43
2023-03-26T13:52:27.959Z,2.41
2023-03-26T13:56:07.721Z,2.35
2023-03-26T13:59:20.750Z,2.35
2023-03-26T14:02:36.330Z,2.29
2023-03-26T14:05:46.094Z,2.21
2023-03-26T14:08:59.442Z,2.13
2023-03-26T14:12:27.161Z,2.05
2023-03-26T14:15:48.543Z,1.94
2023-03-26T14:19:05.403Z,1.98
2023-03-26T14:22:27.841Z,1.89
2023-03-26T14:25:40.097Z,1.91
2023-03-26T14:29:10.705Z,1.77
2023-03-26T14:32:37.498Z,1.71
2023-03-26T14:36:08.476Z,1.61
2023-03-26T14:39:42.271Z,1.64
2023-03-26T14:43:14.314Z,1.60
2023-03-26T14:46:38.293Z,1.56
2023-03-26T14:49:52.328Z,1.46
2023-03-26T14:53:01.476Z,1.39
2023-03-26T14:56:33.129Z,1.42
2023-03-26T14:59:58.764Z,1.39
2023-03-26T15:03:11.305Z,1.32
2023-03-26T15:06:45.843Z,1.22
2023-03-26T15:09:57.934Z,1.15
2023-03-26T15:13:28.724Z,1.09
2023-03-26T15:16:58.645Z,1.06
2023-03-26T15:20:33.449Z,1.08
2023-03-26T15:24:15.299Z,1.11
2023-03-26T15:27:58.493Z,1.03
2023-03-26T15:31:39.763Z,0.96
2023-03-26T15:34:51.296Z,0.88
2023-03-26T15:38:15.180Z,0.80
2023-03-26T15:41:59.216Z,0.76
2023-03-26T15:45:37.344Z,0.75
2023-03-26T15:48:58.828Z,0.66
2023-03-26T15:52:19.675Z,0.59
2023-03-26T15:55:37.214Z,0.55
2023-03-26T15:58:49.553Z,0.50
2023-03-26T16:02:10.686Z,0.40
2023-03-26T16:05:22.676Z,0.34
2023-03-26T16:08:53.642Z,0.36
2023-03-26T16:12:04.441Z,0.36
2023-03-26T16:15:12.226Z,0.36
2023-03-26T16:18:19.756Z,0.34
2023-03-26T16:21:40.358Z,0.40
2023-03-26T16:25:26.383Z,0.40
2023-03-26T16:28:53.354Z,0.42
2023-03-26T16:31:57.623Z,0.37
2023-03-26T16:35:05.343Z,0.33
2023-03-26T16:38:18.935Z,0.33
2023-03-26T16:41:28.164Z,0.22
2023-03-26T16:45:13.427Z,0.26
2023-03-26T16:48:31.130Z,0.25
2023-03-26T16:51:40.991Z,0.19
2023-03-26T16:55:11.965Z,0.08
2023-03-26T16:58:48.907Z,0.07
2023-03-26T17:02:07.464Z,0.03
2023-03-26T17:05:21.713Z,0.01
2023-03-26T17:08:49.112Z,0.16
2023-03-26T17:12:10.386Z,0.15
2023-03-26T17:15:16.719Z,0.08
2023-03-26T17:18:32.974Z,0.13
2023-03-26T17:22:04.585Z,0.05
2023-03-26T17:25:37.172Z,0.00
2023-03-26T17:29:31.108Z,-0.07
2023-03-26T17:32:57.015Z,-0.14
2023-03-26T17:36:12.076Z,-0.25
2023-03-26T17:39:47.677Z,-0.32
2023-03-26T17:43:09.174Z,-0.19
2023-03-26T17:46:39.689Z,-0.22
2023-03-26T17:49:44.895Z,-0.32
2023-03-26T17:52:58.724Z,-0.30
2023-03-26T17:56:07.049Z,-0.31
2023-03-26T17:59:24.062Z,-0.37
2023-03-26T18:02:42.676Z,-0.44
2023-03-26T18:05:48.185Z,-0.50
2023-03-26T18:09:11.123Z,-0.58
2023-03-26T18:12:33.640Z,-0.68
2023-03-26T18:15:47.711Z,-0.82
2023-03-26T18:19:01.535Z,-0.94
2023-03-26T18:22:07.887Z,-0.99
2023-03-26T18:25:28.220Z,-1.04
2023-03-26T18:28:43.424Z,-1.13
2023-03-26T18:31:49.262Z,-1.16
2023-03-26T18:34:59.701Z,-1.21
2023-03-26T18:38:04.122Z,-1.32
2023-03-26T18:41:27.820Z,-1.26
2023-03-26T18:44:39.724Z,-1.35
2023-03-26T18:47:43.956Z,-1.40
2023-03-26T18:50:53.691Z,-1.39
2023-03-26T18:54:03.557Z,-1.41
2023-03-26T18:57:22.469Z,-1.40
2023-03-26T19:00:31.006Z,-1.39
2023-03-26T19:03:37.784Z,-1.44
2023-03-26T19:06:43.469Z,-1.48
2023-03-26T19:09:46.929Z,-1.52
2023-03-26T19:12:59.052Z,-1.52
2023-03-26T19:16:10.046Z,-1.54
2023-03-26T19:19:20.145Z,-1.58
2023-03-26T19:22:24.889Z,-1.55
2023-03-26T19:25:45.338Z,-1.54
2023-03-26T19:28:52.127Z,-1.56
2023-03-26T19:32:04.586Z,-1.61
2023-03-26T19:35:22.266Z,-1.67
2023-03-26T19:38:38.727Z,-1.80
2023-03-26T19:41:46.345Z,-2.18
2023-03-26T19:44:52.818Z,-2.61
2023-03-26T19:48:11.806Z,-2.70
2023-03-26T19:51:22.577Z,-2.63
2023-03-26T19:54:26.492Z,-2.50
2023-03-26T19:57:31.786Z,-2.52
2023-03-26T20:00:35.577Z,-2.60
2023-03-26T20:03:43.781Z,-2.65
2023-03-26T20:06:49.867Z,-2.65
2023-03-26T20:09:54.095Z,-2.62
2023-03-26T20:12:57.120Z,-2.59
2023-03-26T20:16:20.037Z,-2.58
2023-03-26T20:19:24.375Z,-2.61
2023-03-26T20:22:28.157Z,-2.54
2023-03-26T20:25:34.552Z,-2.63
2023-03-26T20:28:47.516Z,-2.81
2023-03-26T20:31:51.749Z,-2.85
2023-03-26T20:34:55.466Z,-2.98
2023-03-26T20:37:58.620Z,-3.11
2023-03-26T20:41:02.547Z,-3.15
2023-03-26T20:44:14.057Z,-3.36
2023-03-26T20:47:17.153Z,-3.71
2023-03-26T20:50:23.746Z,-3.73
2023-03-26T20:53:27.245Z,-3.88
2023-03-26T20:56:31.023Z,-4.02
2023-03-26T20:59:35.533Z,-4.12
2023-03-26T21:02:39.635Z,-4.20
2023-03-26T21:05:44.180Z,-4.22
2023-03-26T21:08:48.225Z,-4.12
2023-03-26T21:12:08.755Z,-4.01
2023-03-26T21:15:20.858Z,-4.08
2023-03-26T21:18:27.874Z,-4.05
2023-03-26T21:21:58.044Z,-4.00
2023-03-26T21:25:22.125Z,-3.92
2023-03-26T21:28:41.722Z,-3.90
2023-03-26T21:31:47.181Z,-3.99
2023-03-26T21:34:58.144Z,-3.96
2023-03-26T21:38:05.766Z,-3.98
2023-03-26T21:41:21.560Z,-4.07
2023-03-26T21:44:26.760Z,-4.09
2023-03-26T21:47:30.987Z,-4.19
2023-03-26T21:50:35.392Z,-4.40
2023-03-26T21:53:39.355Z,-4.40
2023-03-26T21:57:03.218Z,-4.43
2023-03-26T22:00:16.028Z,-4.51
2023-03-26T22:03:50.776Z,-4.49
2023-03-26T22:07:17.406Z,-4.47
2023-03-26T22:10:21.582Z,-4.51
2023-03-26T22:13:25.770Z,-4.60
2023-03-26T22:16:29.134Z,-4.67
2023-03-26T22:19:32.294Z,-4.71
2023-03-26T22:22:36.487Z,-4.72
2023-03-26T22:25:40.734Z,-4.71
2023-03-26T22:28:45.063Z,-4.72
2023-03-26T22:31:48.091Z,-4.65
2023-03-26T22:34:52.714Z,-4.60
2023-03-26T22:38:00.836Z,-4.47
2023-03-26T22:41:04.418Z,-4.36
2023-03-26T22:44:19.255Z,-4.23
2023-03-26T22:47:24.125Z,-4.20
2023-03-26T22:50:28.210Z,-4.22
2023-03-26T22:53:32.279Z,-4.19
2023-03-26T22:56:36.860Z,-4.12
2023-03-26T22:59:39.961Z,-4.10
2023-03-26T23:02:48.022Z,-4.12
2023-03-26T23:06:04.459Z,-4.00
2023-03-26T23:09:08.992Z,-4.08
2023-03-26T23:12:11.960Z,-4.06
2023-03-26T23:15:16.006Z,-3.85
2023-03-26T23:18:20.124Z,-3.70
2023-03-26T23:21:24.120Z,-3.56
2023-03-26T23:24:27.061Z,-3.53
2023-03-26T23:27:31.160Z,-3.50
2023-03-26T23:30:34.691Z,-3.32
2023-03-26T23:33:40.315Z,-3.24
2023-03-26T23:36:45.237Z,-3.39
2023-03-26T23:39:48.646Z,-3.38
2023-03-26T23:42:52.216Z,-3.33
2023-03-26T23:45:57.861Z,-3.05
2023-03-26T23:49:05.137Z,-2.78
2023-03-26T23:52:10.753Z,-2.71
2023-03-26T23:55:13.663Z,-2.49
2023-03-26T23:58:17.373Z,-2.35
